Etusivu
METAR-TAF:

METAR-TAF

Lentoasemat :

Kokkola-Pietarsaaren lentoasema

Kokkola, Suomi

Leveyspiiri: 63-43N, Pituuspiiri: 023-09E, korkeus merenpinnasta: 25 m

Tämänhetkinen sää

Tämä raportti tehtiin 14 minuuttia sitten, kello 22.50 UTC
Tuuli 5 kn etelästä
Lämpötila 4°C
Kosteus 81%
Ilmanpaine 1028 hPa
Näkyvyys 10 km tai enemmän
ei pilviä alle 1500 m:ssä eikä cumulonimbus-pilviä

METAR: EFKK 242250Z AUTO 17005KT CAVOK 04/01 Q1028

Aika: 02:04 (23:04 UTC)

Sääennuste

Tämä raportti tehtiin 8 tuntia ja 39 minuuttia sitten, kello 14.25 UTC
Ennuste voimassa 24. päivästä klo 15 UTC - 24. päivään klo 23 UTC
Tuuli 9 kn lännestä
Näkyvyys 10 km tai enemmän
ei pilviä alle 1500 m:ssä eikä cumulonimbus-pilviä

TAF: EFKK 241425Z 2415/2423 27009KT CAVOK

Säähavainnot ja -ennusteet yli 4000 lentoasemalta (METAR- ja TAF-raportit).

Käytössä olevat sääasemat on merkitty karttaan keltaisilla ja punaisilla pisteillä.

Aseta hiiri pisteen päälle nähdäksesi sääaseman nimen.

Klikkaa sitten nähdäksesi säähavainnot ja -ennusteet.

Kartan vaihtaminen: klikkaa mustalla rastilla varustettuja vihreitä pisteitä, niin voit zoomata sisään; viivalla varustettua vihreää pistettä, niin voit zoomata ulos tai vihreitä nuolia, niin pääset viereisille kartoille.


METAR-TAF: